sensor_id;sensor_type;location;lat;lon;timestamp;P1;durP1;ratioP1;P2;durP2;ratioP2
40595;SDS011;26304;48.794;9.820;2023-10-09T00:02:17;6.10;;;4.10;;
40595;SDS011;26304;48.794;9.820;2023-10-09T00:04:40;6.57;;;4.30;;
40595;SDS011;26304;48.794;9.820;2023-10-09T00:07:05;6.25;;;4.95;;
40595;SDS011;26304;48.794;9.820;2023-10-09T00:09:29;7.13;;;4.70;;
40595;SDS011;26304;48.794;9.820;2023-10-09T00:12:08;5.88;;;4.13;;
40595;SDS011;26304;48.794;9.820;2023-10-09T00:14:31;6.65;;;4.07;;
40595;SDS011;26304;48.794;9.820;2023-10-09T00:16:55;8.73;;;5.18;;
40595;SDS011;26304;48.794;9.820;2023-10-09T00:19:26;8.43;;;4.45;;
40595;SDS011;26304;48.794;9.820;2023-10-09T00:21:51;5.93;;;3.55;;
40595;SDS011;26304;48.794;9.820;2023-10-09T00:24:16;8.77;;;4.90;;
40595;SDS011;26304;48.794;9.820;2023-10-09T00:26:44;8.40;;;4.22;;
40595;SDS011;26304;48.794;9.820;2023-10-09T00:29:09;6.32;;;4.13;;
40595;SDS011;26304;48.794;9.820;2023-10-09T00:31:35;6.75;;;4.35;;
40595;SDS011;26304;48.794;9.820;2023-10-09T00:33:58;8.15;;;4.50;;
40595;SDS011;26304;48.794;9.820;2023-10-09T00:36:39;6.40;;;4.10;;
40595;SDS011;26304;48.794;9.820;2023-10-09T00:39:11;8.23;;;4.38;;
40595;SDS011;26304;48.794;9.820;2023-10-09T00:41:38;8.77;;;4.05;;
40595;SDS011;26304;48.794;9.820;2023-10-09T00:44:02;6.93;;;3.90;;
40595;SDS011;26304;48.794;9.820;2023-10-09T00:46:30;6.28;;;3.92;;
40595;SDS011;26304;48.794;9.820;2023-10-09T00:48:54;9.20;;;4.93;;
40595;SDS011;26304;48.794;9.820;2023-10-09T00:51:18;11.00;;;4.43;;
40595;SDS011;26304;48.794;9.820;2023-10-09T00:53:43;7.13;;;4.03;;
40595;SDS011;26304;48.794;9.820;2023-10-09T00:56:09;10.80;;;4.40;;
40595;SDS011;26304;48.794;9.820;2023-10-09T00:58:39;7.35;;;4.40;;
40595;SDS011;26304;48.794;9.820;2023-10-09T01:01:03;11.98;;;5.07;;
40595;SDS011;26304;48.794;9.820;2023-10-09T01:03:31;7.55;;;4.40;;
40595;SDS011;26304;48.794;9.820;2023-10-09T01:05:56;7.38;;;4.20;;
40595;SDS011;26304;48.794;9.820;2023-10-09T01:08:19;7.65;;;4.55;;
40595;SDS011;26304;48.794;9.820;2023-10-09T01:10:49;8.82;;;4.15;;
40595;SDS011;26304;48.794;9.820;2023-10-09T01:13:14;8.27;;;4.25;;
40595;SDS011;26304;48.794;9.820;2023-10-09T01:15:39;6.68;;;4.03;;
40595;SDS011;26304;48.794;9.820;2023-10-09T01:18:05;8.70;;;4.43;;
40595;SDS011;26304;48.794;9.820;2023-10-09T01:20:30;9.52;;;4.45;;
40595;SDS011;26304;48.794;9.820;2023-10-09T01:23:03;7.25;;;4.93;;
40595;SDS011;26304;48.794;9.820;2023-10-09T01:25:28;6.95;;;4.22;;
40595;SDS011;26304;48.794;9.820;2023-10-09T01:28:03;6.03;;;4.30;;
40595;SDS011;26304;48.794;9.820;2023-10-09T01:30:25;11.77;;;5.07;;
40595;SDS011;26304;48.794;9.820;2023-10-09T01:32:48;7.88;;;4.53;;
40595;SDS011;26304;48.794;9.820;2023-10-09T01:35:11;7.35;;;4.10;;
40595;SDS011;26304;48.794;9.820;2023-10-09T01:37:42;8.00;;;4.30;;
40595;SDS011;26304;48.794;9.820;2023-10-09T01:40:06;7.57;;;4.63;;
40595;SDS011;26304;48.794;9.820;2023-10-09T01:42:45;9.25;;;4.60;;
40595;SDS011;26304;48.794;9.820;2023-10-09T01:45:08;10.52;;;4.32;;
40595;SDS011;26304;48.794;9.820;2023-10-09T01:47:48;10.35;;;5.15;;
40595;SDS011;26304;48.794;9.820;2023-10-09T01:50:14;11.40;;;4.88;;
40595;SDS011;26304;48.794;9.820;2023-10-09T01:52:41;9.90;;;4.78;;
40595;SDS011;26304;48.794;9.820;2023-10-09T01:55:04;12.00;;;4.95;;
40595;SDS011;26304;48.794;9.820;2023-10-09T01:57:48;11.07;;;4.68;;
40595;SDS011;26304;48.794;9.820;2023-10-09T02:00:12;10.00;;;4.55;;
40595;SDS011;26304;48.794;9.820;2023-10-09T02:02:44;13.38;;;5.05;;
40595;SDS011;26304;48.794;9.820;2023-10-09T02:05:06;7.35;;;4.55;;
40595;SDS011;26304;48.794;9.820;2023-10-09T02:07:45;10.27;;;4.50;;
40595;SDS011;26304;48.794;9.820;2023-10-09T02:10:12;9.65;;;5.13;;
40595;SDS011;26304;48.794;9.820;2023-10-09T02:12:46;10.95;;;4.55;;
40595;SDS011;26304;48.794;9.820;2023-10-09T02:15:13;11.55;;;5.25;;
40595;SDS011;26304;48.794;9.820;2023-10-09T02:17:37;10.85;;;5.18;;
40595;SDS011;26304;48.794;9.820;2023-10-09T02:20:12;11.63;;;4.88;;
40595;SDS011;26304;48.794;9.820;2023-10-09T02:22:49;8.63;;;4.95;;
40595;SDS011;26304;48.794;9.820;2023-10-09T02:25:14;11.20;;;4.65;;
40595;SDS011;26304;48.794;9.820;2023-10-09T02:27:41;8.73;;;4.25;;
40595;SDS011;26304;48.794;9.820;2023-10-09T02:30:15;13.82;;;5.28;;
40595;SDS011;26304;48.794;9.820;2023-10-09T02:32:41;10.50;;;4.82;;
40595;SDS011;26304;48.794;9.820;2023-10-09T02:35:04;8.80;;;4.38;;
40595;SDS011;26304;48.794;9.820;2023-10-09T02:37:31;11.93;;;4.72;;
40595;SDS011;26304;48.794;9.820;2023-10-09T02:39:53;12.70;;;4.80;;
40595;SDS011;26304;48.794;9.820;2023-10-09T02:42:17;8.50;;;4.18;;
40595;SDS011;26304;48.794;9.820;2023-10-09T02:44:47;11.02;;;4.90;;
40595;SDS011;26304;48.794;9.820;2023-10-09T02:47:12;12.05;;;4.95;;
40595;SDS011;26304;48.794;9.820;2023-10-09T02:49:41;10.70;;;4.80;;
40595;SDS011;26304;48.794;9.820;2023-10-09T02:52:04;9.38;;;5.15;;
40595;SDS011;26304;48.794;9.820;2023-10-09T02:54:28;11.75;;;5.63;;
40595;SDS011;26304;48.794;9.820;2023-10-09T02:56:56;14.50;;;4.60;;
40595;SDS011;26304;48.794;9.820;2023-10-09T02:59:27;12.60;;;4.10;;
40595;SDS011;26304;48.794;9.820;2023-10-09T03:01:51;13.68;;;5.72;;
40595;SDS011;26304;48.794;9.820;2023-10-09T03:04:15;9.40;;;4.68;;
40595;SDS011;26304;48.794;9.820;2023-10-09T03:06:40;9.00;;;4.65;;
40595;SDS011;26304;48.794;9.820;2023-10-09T03:09:10;11.73;;;5.15;;
40595;SDS011;26304;48.794;9.820;2023-10-09T03:11:38;9.85;;;4.90;;
40595;SDS011;26304;48.794;9.820;2023-10-09T03:14:02;8.90;;;5.20;;
40595;SDS011;26304;48.794;9.820;2023-10-09T03:16:25;10.18;;;5.00;;
40595;SDS011;26304;48.794;9.820;2023-10-09T03:18:49;13.50;;;4.43;;
40595;SDS011;26304;48.794;9.820;2023-10-09T03:21:14;7.78;;;3.67;;
40595;SDS011;26304;48.794;9.820;2023-10-09T03:23:38;7.75;;;4.25;;
40595;SDS011;26304;48.794;9.820;2023-10-09T03:26:00;10.82;;;4.30;;
40595;SDS011;26304;48.794;9.820;2023-10-09T03:28:24;8.45;;;3.92;;
40595;SDS011;26304;48.794;9.820;2023-10-09T03:30:47;10.45;;;4.15;;
40595;SDS011;26304;48.794;9.820;2023-10-09T03:33:09;10.02;;;4.10;;
40595;SDS011;26304;48.794;9.820;2023-10-09T03:35:32;9.77;;;4.18;;
40595;SDS011;26304;48.794;9.820;2023-10-09T03:37:58;12.45;;;4.30;;
40595;SDS011;26304;48.794;9.820;2023-10-09T03:40:21;8.52;;;4.65;;
40595;SDS011;26304;48.794;9.820;2023-10-09T03:42:43;11.18;;;4.88;;
40595;SDS011;26304;48.794;9.820;2023-10-09T03:45:06;8.65;;;4.22;;
40595;SDS011;26304;48.794;9.820;2023-10-09T03:47:37;8.65;;;4.35;;
40595;SDS011;26304;48.794;9.820;2023-10-09T03:50:02;9.13;;;4.60;;
40595;SDS011;26304;48.794;9.820;2023-10-09T03:52:41;9.80;;;4.28;;
40595;SDS011;26304;48.794;9.820;2023-10-09T03:55:06;8.27;;;4.25;;
40595;SDS011;26304;48.794;9.820;2023-10-09T03:57:32;8.27;;;4.82;;
40595;SDS011;26304;48.794;9.820;2023-10-09T03:59:55;9.55;;;4.60;;
40595;SDS011;26304;48.794;9.820;2023-10-09T04:02:17;11.18;;;4.78;;
40595;SDS011;26304;48.794;9.820;2023-10-09T04:04:40;15.45;;;5.25;;
40595;SDS011;26304;48.794;9.820;2023-10-09T04:07:06;10.40;;;4.95;;
40595;SDS011;26304;48.794;9.820;2023-10-09T04:09:29;11.65;;;4.68;;
40595;SDS011;26304;48.794;9.820;2023-10-09T04:12:01;10.98;;;4.82;;
40595;SDS011;26304;48.794;9.820;2023-10-09T04:14:42;7.65;;;4.55;;
40595;SDS011;26304;48.794;9.820;2023-10-09T04:17:12;9.00;;;4.70;;
40595;SDS011;26304;48.794;9.820;2023-10-09T04:19:53;8.60;;;4.57;;
40595;SDS011;26304;48.794;9.820;2023-10-09T04:22:30;10.98;;;4.35;;
40595;SDS011;26304;48.794;9.820;2023-10-09T04:24:59;9.77;;;4.72;;
40595;SDS011;26304;48.794;9.820;2023-10-09T04:27:22;8.68;;;4.13;;
40595;SDS011;26304;48.794;9.820;2023-10-09T04:29:47;9.75;;;4.57;;
40595;SDS011;26304;48.794;9.820;2023-10-09T04:32:10;8.32;;;4.55;;
40595;SDS011;26304;48.794;9.820;2023-10-09T04:34:36;8.20;;;4.13;;
40595;SDS011;26304;48.794;9.820;2023-10-09T04:36:59;10.15;;;4.95;;
40595;SDS011;26304;48.794;9.820;2023-10-09T04:39:29;10.15;;;4.93;;
40595;SDS011;26304;48.794;9.820;2023-10-09T04:42:07;7.13;;;4.18;;
40595;SDS011;26304;48.794;9.820;2023-10-09T04:44:48;12.23;;;4.38;;
40595;SDS011;26304;48.794;9.820;2023-10-09T04:47:39;9.00;;;4.40;;
40595;SDS011;26304;48.794;9.820;2023-10-09T04:50:10;8.02;;;4.00;;
40595;SDS011;26304;48.794;9.820;2023-10-09T04:52:48;12.10;;;4.72;;
40595;SDS011;26304;48.794;9.820;2023-10-09T04:55:15;10.77;;;4.22;;
40595;SDS011;26304;48.794;9.820;2023-10-09T04:57:40;7.07;;;4.68;;
40595;SDS011;26304;48.794;9.820;2023-10-09T05:00:23;9.40;;;4.60;;
40595;SDS011;26304;48.794;9.820;2023-10-09T05:03:06;7.45;;;4.35;;
40595;SDS011;26304;48.794;9.820;2023-10-09T05:05:32;9.63;;;4.85;;
40595;SDS011;26304;48.794;9.820;2023-10-09T05:08:10;8.52;;;4.20;;
40595;SDS011;26304;48.794;9.820;2023-10-09T05:10:40;8.88;;;4.70;;
40595;SDS011;26304;48.794;9.820;2023-10-09T05:13:14;9.23;;;4.15;;
40595;SDS011;26304;48.794;9.820;2023-10-09T05:15:49;8.68;;;4.03;;
40595;SDS011;26304;48.794;9.820;2023-10-09T05:18:13;9.00;;;4.35;;
40595;SDS011;26304;48.794;9.820;2023-10-09T05:20:37;9.80;;;5.03;;
40595;SDS011;26304;48.794;9.820;2023-10-09T05:23:26;8.80;;;4.82;;
40595;SDS011;26304;48.794;9.820;2023-10-09T05:25:48;10.23;;;4.70;;
40595;SDS011;26304;48.794;9.820;2023-10-09T05:28:16;10.55;;;5.10;;
40595;SDS011;26304;48.794;9.820;2023-10-09T05:30:54;9.77;;;4.22;;
40595;SDS011;26304;48.794;9.820;2023-10-09T05:33:23;8.25;;;4.70;;
40595;SDS011;26304;48.794;9.820;2023-10-09T05:35:54;8.70;;;4.10;;
40595;SDS011;26304;48.794;9.820;2023-10-09T05:38:34;11.32;;;4.65;;
40595;SDS011;26304;48.794;9.820;2023-10-09T05:41:07;11.27;;;4.57;;
40595;SDS011;26304;48.794;9.820;2023-10-09T05:43:43;10.02;;;4.95;;
40595;SDS011;26304;48.794;9.820;2023-10-09T05:46:24;11.00;;;4.47;;
40595;SDS011;26304;48.794;9.820;2023-10-09T05:48:56;12.48;;;5.47;;
40595;SDS011;26304;48.794;9.820;2023-10-09T05:51:29;8.98;;;4.38;;
40595;SDS011;26304;48.794;9.820;2023-10-09T05:54:11;12.57;;;5.22;;
40595;SDS011;26304;48.794;9.820;2023-10-09T05:56:44;8.63;;;4.45;;
40595;SDS011;26304;48.794;9.820;2023-10-09T05:59:24;10.70;;;4.47;;
40595;SDS011;26304;48.794;9.820;2023-10-09T06:02:05;11.02;;;4.90;;
40595;SDS011;26304;48.794;9.820;2023-10-09T06:04:53;7.80;;;4.13;;
40595;SDS011;26304;48.794;9.820;2023-10-09T06:07:16;8.10;;;4.18;;
40595;SDS011;26304;48.794;9.820;2023-10-09T06:09:44;7.70;;;3.85;;
40595;SDS011;26304;48.794;9.820;2023-10-09T06:12:13;8.55;;;4.55;;
40595;SDS011;26304;48.794;9.820;2023-10-09T06:14:53;10.40;;;4.07;;
40595;SDS011;26304;48.794;9.820;2023-10-09T06:17:42;7.88;;;3.70;;
40595;SDS011;26304;48.794;9.820;2023-10-09T06:20:05;9.18;;;4.30;;
40595;SDS011;26304;48.794;9.820;2023-10-09T06:22:48;8.18;;;3.90;;
40595;SDS011;26304;48.794;9.820;2023-10-09T06:25:19;9.18;;;4.38;;
40595;SDS011;26304;48.794;9.820;2023-10-09T06:27:47;8.48;;;4.15;;
40595;SDS011;26304;48.794;9.820;2023-10-09T06:30:18;8.35;;;4.43;;
40595;SDS011;26304;48.794;9.820;2023-10-09T06:32:46;8.85;;;4.07;;
40595;SDS011;26304;48.794;9.820;2023-10-09T06:35:18;8.07;;;3.90;;
40595;SDS011;26304;48.794;9.820;2023-10-09T06:37:42;8.13;;;3.97;;
40595;SDS011;26304;48.794;9.820;2023-10-09T06:40:23;8.57;;;4.28;;
40595;SDS011;26304;48.794;9.820;2023-10-09T06:43:03;9.50;;;3.58;;
40595;SDS011;26304;48.794;9.820;2023-10-09T06:45:29;8.35;;;4.05;;
40595;SDS011;26304;48.794;9.820;2023-10-09T06:48:06;8.65;;;4.15;;
40595;SDS011;26304;48.794;9.820;2023-10-09T06:50:30;10.77;;;3.95;;
40595;SDS011;26304;48.794;9.820;2023-10-09T06:53:16;7.72;;;3.72;;
40595;SDS011;26304;48.794;9.820;2023-10-09T06:55:40;8.77;;;3.95;;
40595;SDS011;26304;48.794;9.820;2023-10-09T06:58:10;8.65;;;4.00;;
40595;SDS011;26304;48.794;9.820;2023-10-09T07:00:37;8.15;;;3.72;;
40595;SDS011;26304;48.794;9.820;2023-10-09T07:03:18;9.32;;;4.55;;
40595;SDS011;26304;48.794;9.820;2023-10-09T07:05:50;7.85;;;3.40;;
40595;SDS011;26304;48.794;9.820;2023-10-09T07:08:25;11.73;;;4.10;;
40595;SDS011;26304;48.794;9.820;2023-10-09T07:10:53;10.35;;;3.75;;
40595;SDS011;26304;48.794;9.820;2023-10-09T07:13:34;8.95;;;4.03;;
40595;SDS011;26304;48.794;9.820;2023-10-09T07:15:58;9.43;;;3.85;;
40595;SDS011;26304;48.794;9.820;2023-10-09T07:18:44;7.80;;;3.42;;
40595;SDS011;26304;48.794;9.820;2023-10-09T07:21:15;7.72;;;3.88;;
40595;SDS011;26304;48.794;9.820;2023-10-09T07:23:48;9.98;;;4.03;;
40595;SDS011;26304;48.794;9.820;2023-10-09T07:26:16;6.82;;;3.78;;
40595;SDS011;26304;48.794;9.820;2023-10-09T07:28:45;9.25;;;3.90;;
40595;SDS011;26304;48.794;9.820;2023-10-09T07:31:16;7.78;;;3.50;;
40595;SDS011;26304;48.794;9.820;2023-10-09T07:33:46;7.28;;;3.33;;
40595;SDS011;26304;48.794;9.820;2023-10-09T07:36:18;9.32;;;3.72;;
40595;SDS011;26304;48.794;9.820;2023-10-09T07:38:56;9.63;;;3.97;;
40595;SDS011;26304;48.794;9.820;2023-10-09T07:41:20;9.98;;;3.42;;
40595;SDS011;26304;48.794;9.820;2023-10-09T07:44:05;7.18;;;3.70;;
40595;SDS011;26304;48.794;9.820;2023-10-09T07:46:57;8.35;;;3.58;;
40595;SDS011;26304;48.794;9.820;2023-10-09T07:49:35;6.10;;;3.35;;
40595;SDS011;26304;48.794;9.820;2023-10-09T07:51:58;9.05;;;4.20;;
40595;SDS011;26304;48.794;9.820;2023-10-09T07:54:20;8.50;;;3.40;;
40595;SDS011;26304;48.794;9.820;2023-10-09T07:56:52;9.13;;;3.78;;
40595;SDS011;26304;48.794;9.820;2023-10-09T07:59:29;8.63;;;3.88;;
40595;SDS011;26304;48.794;9.820;2023-10-09T08:01:52;7.15;;;3.25;;
40595;SDS011;26304;48.794;9.820;2023-10-09T08:04:15;8.27;;;3.38;;
40595;SDS011;26304;48.794;9.820;2023-10-09T08:06:42;7.00;;;3.30;;
40595;SDS011;26304;48.794;9.820;2023-10-09T08:09:05;7.30;;;3.97;;
40595;SDS011;26304;48.794;9.820;2023-10-09T08:11:49;8.93;;;3.60;;
40595;SDS011;26304;48.794;9.820;2023-10-09T08:14:29;6.80;;;3.53;;
40595;SDS011;26304;48.794;9.820;2023-10-09T08:17:06;7.30;;;4.00;;
40595;SDS011;26304;48.794;9.820;2023-10-09T08:19:34;6.97;;;3.67;;
40595;SDS011;26304;48.794;9.820;2023-10-09T08:22:14;6.35;;;3.38;;
40595;SDS011;26304;48.794;9.820;2023-10-09T08:24:59;6.05;;;3.40;;
40595;SDS011;26304;48.794;9.820;2023-10-09T08:27:23;7.45;;;3.25;;
40595;SDS011;26304;48.794;9.820;2023-10-09T08:30:06;6.13;;;3.30;;
40595;SDS011;26304;48.794;9.820;2023-10-09T08:32:49;6.18;;;3.47;;
40595;SDS011;26304;48.794;9.820;2023-10-09T08:35:21;7.30;;;3.50;;
40595;SDS011;26304;48.794;9.820;2023-10-09T08:37:51;8.18;;;3.50;;
40595;SDS011;26304;48.794;9.820;2023-10-09T08:40:14;7.00;;;3.22;;
40595;SDS011;26304;48.794;9.820;2023-10-09T08:42:41;7.00;;;3.20;;
40595;SDS011;26304;48.794;9.820;2023-10-09T08:45:06;5.90;;;2.92;;
40595;SDS011;26304;48.794;9.820;2023-10-09T08:47:29;6.82;;;2.95;;
40595;SDS011;26304;48.794;9.820;2023-10-09T08:49:53;6.50;;;3.25;;
40595;SDS011;26304;48.794;9.820;2023-10-09T08:52:16;6.63;;;3.25;;
40595;SDS011;26304;48.794;9.820;2023-10-09T08:54:40;8.30;;;3.60;;
40595;SDS011;26304;48.794;9.820;2023-10-09T08:57:05;5.93;;;3.33;;
40595;SDS011;26304;48.794;9.820;2023-10-09T08:59:30;6.43;;;3.10;;
40595;SDS011;26304;48.794;9.820;2023-10-09T09:01:54;7.72;;;3.15;;
40595;SDS011;26304;48.794;9.820;2023-10-09T09:07:01;7.22;;;3.53;;
40595;SDS011;26304;48.794;9.820;2023-10-09T09:09:24;6.47;;;2.95;;
40595;SDS011;26304;48.794;9.820;2023-10-09T09:11:50;7.38;;;3.75;;
40595;SDS011;26304;48.794;9.820;2023-10-09T09:14:13;5.90;;;2.72;;
40595;SDS011;26304;48.794;9.820;2023-10-09T09:16:40;6.13;;;3.60;;
40595;SDS011;26304;48.794;9.820;2023-10-09T09:19:09;7.30;;;3.13;;
40595;SDS011;26304;48.794;9.820;2023-10-09T09:21:40;6.13;;;3.03;;
40595;SDS011;26304;48.794;9.820;2023-10-09T09:24:04;6.00;;;3.25;;
40595;SDS011;26304;48.794;9.820;2023-10-09T09:26:37;5.68;;;2.97;;
40595;SDS011;26304;48.794;9.820;2023-10-09T09:29:07;5.72;;;3.00;;
40595;SDS011;26304;48.794;9.820;2023-10-09T09:31:29;5.82;;;3.25;;
40595;SDS011;26304;48.794;9.820;2023-10-09T09:33:58;7.75;;;3.20;;
40595;SDS011;26304;48.794;9.820;2023-10-09T09:36:24;6.43;;;3.63;;
40595;SDS011;26304;48.794;9.820;2023-10-09T09:38:50;6.60;;;3.05;;
40595;SDS011;26304;48.794;9.820;2023-10-09T09:41:13;9.15;;;3.60;;
40595;SDS011;26304;48.794;9.820;2023-10-09T09:43:44;6.65;;;3.50;;
40595;SDS011;26304;48.794;9.820;2023-10-09T09:46:08;6.43;;;3.50;;
40595;SDS011;26304;48.794;9.820;2023-10-09T09:48:37;6.60;;;3.30;;
40595;SDS011;26304;48.794;9.820;2023-10-09T09:51:05;6.82;;;3.30;;
40595;SDS011;26304;48.794;9.820;2023-10-09T09:53:29;8.05;;;3.47;;
40595;SDS011;26304;48.794;9.820;2023-10-09T09:55:55;8.93;;;3.58;;
40595;SDS011;26304;48.794;9.820;2023-10-09T09:58:18;7.28;;;3.17;;
40595;SDS011;26304;48.794;9.820;2023-10-09T10:00:44;11.85;;;3.83;;
40595;SDS011;26304;48.794;9.820;2023-10-09T10:03:16;7.15;;;3.67;;
40595;SDS011;26304;48.794;9.820;2023-10-09T10:05:42;7.82;;;3.75;;
40595;SDS011;26304;48.794;9.820;2023-10-09T10:08:07;6.90;;;3.00;;
40595;SDS011;26304;48.794;9.820;2023-10-09T10:10:34;8.68;;;3.45;;
40595;SDS011;26304;48.794;9.820;2023-10-09T10:13:00;7.60;;;3.65;;
40595;SDS011;26304;48.794;9.820;2023-10-09T10:15:22;8.05;;;3.78;;
40595;SDS011;26304;48.794;9.820;2023-10-09T10:20:32;4.72;;;3.30;;
40595;SDS011;26304;48.794;9.820;2023-10-09T10:23:35;5.35;;;3.15;;
40595;SDS011;26304;48.794;9.820;2023-10-09T10:25:59;11.82;;;3.50;;
40595;SDS011;26304;48.794;9.820;2023-10-09T10:28:38;8.52;;;3.53;;
40595;SDS011;26304;48.794;9.820;2023-10-09T10:31:03;6.38;;;2.85;;
40595;SDS011;26304;48.794;9.820;2023-10-09T10:33:32;5.78;;;3.30;;
40595;SDS011;26304;48.794;9.820;2023-10-09T10:36:31;9.15;;;3.20;;
40595;SDS011;26304;48.794;9.820;2023-10-09T10:38:59;5.68;;;3.33;;
40595;SDS011;26304;48.794;9.820;2023-10-09T10:41:25;7.00;;;3.40;;
40595;SDS011;26304;48.794;9.820;2023-10-09T10:43:52;5.03;;;3.05;;
40595;SDS011;26304;48.794;9.820;2023-10-09T10:46:20;6.78;;;2.90;;
40595;SDS011;26304;48.794;9.820;2023-10-09T10:48:58;6.43;;;3.50;;
40595;SDS011;26304;48.794;9.820;2023-10-09T10:51:34;5.22;;;2.80;;
40595;SDS011;26304;48.794;9.820;2023-10-09T10:53:58;5.57;;;3.20;;
40595;SDS011;26304;48.794;9.820;2023-10-09T10:56:37;8.43;;;3.15;;
40595;SDS011;26304;48.794;9.820;2023-10-09T10:58:59;7.70;;;3.22;;
40595;SDS011;26304;48.794;9.820;2023-10-09T11:01:34;6.13;;;3.78;;
40595;SDS011;26304;48.794;9.820;2023-10-09T11:04:13;9.40;;;3.85;;
40595;SDS011;26304;48.794;9.820;2023-10-09T11:06:46;6.53;;;3.28;;
40595;SDS011;26304;48.794;9.820;2023-10-09T11:09:13;11.82;;;3.67;;
40595;SDS011;26304;48.794;9.820;2023-10-09T11:11:42;8.13;;;3.58;;
40595;SDS011;26304;48.794;9.820;2023-10-09T11:14:08;7.72;;;2.78;;
40595;SDS011;26304;48.794;9.820;2023-10-09T11:16:35;8.00;;;3.47;;
40595;SDS011;26304;48.794;9.820;2023-10-09T11:19:09;8.57;;;3.80;;
40595;SDS011;26304;48.794;9.820;2023-10-09T11:21:43;6.40;;;2.90;;
40595;SDS011;26304;48.794;9.820;2023-10-09T11:24:08;9.23;;;3.50;;
40595;SDS011;26304;48.794;9.820;2023-10-09T11:26:46;7.35;;;3.35;;
40595;SDS011;26304;48.794;9.820;2023-10-09T11:29:16;7.10;;;3.13;;
40595;SDS011;26304;48.794;9.820;2023-10-09T11:31:56;6.47;;;3.63;;
40595;SDS011;26304;48.794;9.820;2023-10-09T11:34:20;10.57;;;3.72;;
40595;SDS011;26304;48.794;9.820;2023-10-09T11:36:49;8.20;;;3.03;;
40595;SDS011;26304;48.794;9.820;2023-10-09T11:39:24;6.78;;;2.95;;
40595;SDS011;26304;48.794;9.820;2023-10-09T11:41:59;7.22;;;2.95;;
40595;SDS011;26304;48.794;9.820;2023-10-09T11:44:34;7.90;;;3.70;;
40595;SDS011;26304;48.794;9.820;2023-10-09T11:47:07;9.10;;;3.30;;
40595;SDS011;26304;48.794;9.820;2023-10-09T11:49:46;7.22;;;2.97;;
40595;SDS011;26304;48.794;9.820;2023-10-09T11:52:17;9.35;;;3.15;;
40595;SDS011;26304;48.794;9.820;2023-10-09T11:54:57;7.07;;;2.95;;
40595;SDS011;26304;48.794;9.820;2023-10-09T11:57:20;8.00;;;3.53;;
40595;SDS011;26304;48.794;9.820;2023-10-09T11:59:49;9.02;;;3.67;;
40595;SDS011;26304;48.794;9.820;2023-10-09T12:02:13;7.22;;;2.83;;
40595;SDS011;26304;48.794;9.820;2023-10-09T12:04:35;8.73;;;3.95;;
40595;SDS011;26304;48.794;9.820;2023-10-09T12:06:58;7.47;;;3.67;;
40595;SDS011;26304;48.794;9.820;2023-10-09T12:09:27;8.82;;;3.10;;
40595;SDS011;26304;48.794;9.820;2023-10-09T12:11:51;5.80;;;2.80;;
40595;SDS011;26304;48.794;9.820;2023-10-09T12:14:14;8.77;;;3.20;;
40595;SDS011;26304;48.794;9.820;2023-10-09T12:16:36;7.43;;;3.08;;
40595;SDS011;26304;48.794;9.820;2023-10-09T12:19:10;6.75;;;2.63;;
40595;SDS011;26304;48.794;9.820;2023-10-09T12:21:33;9.52;;;3.20;;
40595;SDS011;26304;48.794;9.820;2023-10-09T12:23:56;5.75;;;3.30;;
40595;SDS011;26304;48.794;9.820;2023-10-09T12:26:19;7.05;;;3.28;;
40595;SDS011;26304;48.794;9.820;2023-10-09T12:28:43;8.43;;;2.83;;
40595;SDS011;26304;48.794;9.820;2023-10-09T12:31:06;7.03;;;3.53;;
40595;SDS011;26304;48.794;9.820;2023-10-09T12:33:29;7.05;;;2.95;;
40595;SDS011;26304;48.794;9.820;2023-10-09T12:35:51;7.88;;;3.10;;
40595;SDS011;26304;48.794;9.820;2023-10-09T12:38:14;9.05;;;3.28;;
40595;SDS011;26304;48.794;9.820;2023-10-09T12:40:39;6.20;;;3.00;;
40595;SDS011;26304;48.794;9.820;2023-10-09T12:43:11;6.97;;;4.00;;
40595;SDS011;26304;48.794;9.820;2023-10-09T12:45:42;6.90;;;3.63;;
40595;SDS011;26304;48.794;9.820;2023-10-09T12:48:06;9.23;;;3.53;;
40595;SDS011;26304;48.794;9.820;2023-10-09T12:50:30;10.50;;;3.90;;
40595;SDS011;26304;48.794;9.820;2023-10-09T12:52:55;7.30;;;2.92;;
40595;SDS011;26304;48.794;9.820;2023-10-09T12:55:22;10.88;;;3.30;;
40595;SDS011;26304;48.794;9.820;2023-10-09T12:57:52;8.85;;;3.40;;
40595;SDS011;26304;48.794;9.820;2023-10-09T13:00:15;9.73;;;3.92;;
40595;SDS011;26304;48.794;9.820;2023-10-09T13:02:47;9.43;;;3.45;;
40595;SDS011;26304;48.794;9.820;2023-10-09T13:05:10;7.03;;;3.95;;
40595;SDS011;26304;48.794;9.820;2023-10-09T13:07:46;8.13;;;3.30;;
40595;SDS011;26304;48.794;9.820;2023-10-09T13:10:09;7.30;;;3.20;;
40595;SDS011;26304;48.794;9.820;2023-10-09T13:12:33;9.85;;;3.60;;
40595;SDS011;26304;48.794;9.820;2023-10-09T13:14:59;8.18;;;3.17;;
40595;SDS011;26304;48.794;9.820;2023-10-09T13:17:21;7.72;;;3.22;;
40595;SDS011;26304;48.794;9.820;2023-10-09T13:19:49;7.53;;;3.33;;
40595;SDS011;26304;48.794;9.820;2023-10-09T13:22:12;7.35;;;2.95;;
40595;SDS011;26304;48.794;9.820;2023-10-09T13:24:35;5.75;;;3.03;;
40595;SDS011;26304;48.794;9.820;2023-10-09T13:27:00;7.55;;;3.10;;
40595;SDS011;26304;48.794;9.820;2023-10-09T13:29:25;5.65;;;3.35;;
40595;SDS011;26304;48.794;9.820;2023-10-09T13:31:48;5.65;;;3.10;;
40595;SDS011;26304;48.794;9.820;2023-10-09T13:34:13;5.80;;;3.08;;
40595;SDS011;26304;48.794;9.820;2023-10-09T13:36:38;7.30;;;2.92;;
40595;SDS011;26304;48.794;9.820;2023-10-09T13:39:01;9.15;;;3.58;;
40595;SDS011;26304;48.794;9.820;2023-10-09T13:41:43;8.80;;;3.40;;
40595;SDS011;26304;48.794;9.820;2023-10-09T13:44:05;7.13;;;3.60;;
40595;SDS011;26304;48.794;9.820;2023-10-09T13:46:28;8.38;;;3.63;;
40595;SDS011;26304;48.794;9.820;2023-10-09T13:48:50;6.75;;;3.58;;
40595;SDS011;26304;48.794;9.820;2023-10-09T13:51:14;10.23;;;3.80;;
40595;SDS011;26304;48.794;9.820;2023-10-09T13:53:43;8.43;;;3.75;;
40595;SDS011;26304;48.794;9.820;2023-10-09T13:56:10;6.80;;;3.05;;
40595;SDS011;26304;48.794;9.820;2023-10-09T13:58:35;8.20;;;3.50;;
40595;SDS011;26304;48.794;9.820;2023-10-09T14:01:01;11.02;;;3.92;;
40595;SDS011;26304;48.794;9.820;2023-10-09T14:03:29;6.22;;;3.42;;
40595;SDS011;26304;48.794;9.820;2023-10-09T14:05:51;8.45;;;4.32;;
40595;SDS011;26304;48.794;9.820;2023-10-09T14:08:15;7.35;;;3.50;;
40595;SDS011;26304;48.794;9.820;2023-10-09T14:10:39;9.35;;;3.63;;
40595;SDS011;26304;48.794;9.820;2023-10-09T14:13:01;7.38;;;3.97;;
40595;SDS011;26304;48.794;9.820;2023-10-09T14:15:33;9.02;;;3.50;;
40595;SDS011;26304;48.794;9.820;2023-10-09T14:18:00;13.98;;;3.58;;
40595;SDS011;26304;48.794;9.820;2023-10-09T14:20:23;8.88;;;4.07;;
40595;SDS011;26304;48.794;9.820;2023-10-09T14:22:51;12.90;;;4.13;;
40595;SDS011;26304;48.794;9.820;2023-10-09T14:25:13;10.23;;;3.70;;
40595;SDS011;26304;48.794;9.820;2023-10-09T14:27:42;7.50;;;3.00;;
40595;SDS011;26304;48.794;9.820;2023-10-09T14:30:05;8.40;;;3.90;;
40595;SDS011;26304;48.794;9.820;2023-10-09T14:32:33;5.35;;;3.17;;
40595;SDS011;26304;48.794;9.820;2023-10-09T14:35:05;6.90;;;3.45;;
40595;SDS011;26304;48.794;9.820;2023-10-09T14:37:33;8.65;;;3.97;;
40595;SDS011;26304;48.794;9.820;2023-10-09T14:39:56;9.20;;;4.15;;
40595;SDS011;26304;48.794;9.820;2023-10-09T14:42:19;8.73;;;4.10;;
40595;SDS011;26304;48.794;9.820;2023-10-09T14:44:45;7.55;;;3.88;;
40595;SDS011;26304;48.794;9.820;2023-10-09T14:47:08;7.68;;;3.55;;
40595;SDS011;26304;48.794;9.820;2023-10-09T14:49:31;7.57;;;3.50;;
40595;SDS011;26304;48.794;9.820;2023-10-09T14:51:55;7.88;;;4.00;;
40595;SDS011;26304;48.794;9.820;2023-10-09T14:54:20;10.73;;;4.53;;
40595;SDS011;26304;48.794;9.820;2023-10-09T14:56:42;7.47;;;3.60;;
40595;SDS011;26304;48.794;9.820;2023-10-09T14:59:06;5.65;;;3.40;;
40595;SDS011;26304;48.794;9.820;2023-10-09T15:01:30;7.50;;;3.58;;